sensor_id;sensor_type;location;lat;lon;timestamp;pressure;altitude;pressure_sealevel;temperature;humidity
36748;BME280;22716;51.556;5.080;2024-03-29T00:02:25;98372.63;;;9.99;98.11
36748;BME280;22716;51.556;5.080;2024-03-29T00:04:54;98359.75;;;9.94;97.88
36748;BME280;22716;51.556;5.080;2024-03-29T00:07:20;98356.22;;;9.95;98.82
36748;BME280;22716;51.556;5.080;2024-03-29T00:09:48;98363.16;;;9.96;98.58
36748;BME280;22716;51.556;5.080;2024-03-29T00:12:17;98367.53;;;9.96;98.95
36748;BME280;22716;51.556;5.080;2024-03-29T00:14:43;98377.13;;;9.95;99.09
36748;BME280;22716;51.556;5.080;2024-03-29T00:17:09;98379.97;;;9.91;98.72
36748;BME280;22716;51.556;5.080;2024-03-29T00:19:38;98382.50;;;9.92;98.83
36748;BME280;22716;51.556;5.080;2024-03-29T00:22:04;98390.16;;;9.97;99.06
36748;BME280;22716;51.556;5.080;2024-03-29T00:24:30;98386.69;;;9.96;99.08
36748;BME280;22716;51.556;5.080;2024-03-29T00:27:01;98387.59;;;9.95;98.74
36748;BME280;22716;51.556;5.080;2024-03-29T00:29:28;98384.31;;;9.92;98.75
36748;BME280;22716;51.556;5.080;2024-03-29T00:31:55;98395.59;;;9.92;99.19
36748;BME280;22716;51.556;5.080;2024-03-29T00:34:23;98391.22;;;9.93;99.08
36748;BME280;22716;51.556;5.080;2024-03-29T00:36:49;98391.34;;;9.90;98.94
36748;BME280;22716;51.556;5.080;2024-03-29T00:39:15;98383.72;;;9.85;99.16
36748;BME280;22716;51.556;5.080;2024-03-29T00:41:44;98393.09;;;9.89;99.49
36748;BME280;22716;51.556;5.080;2024-03-29T00:44:12;98392.28;;;9.89;99.26
36748;BME280;22716;51.556;5.080;2024-03-29T00:46:38;98394.03;;;9.88;98.50
36748;BME280;22716;51.556;5.080;2024-03-29T00:49:06;98400.41;;;9.83;99.11
36748;BME280;22716;51.556;5.080;2024-03-29T00:51:33;98401.09;;;9.86;98.95
36748;BME280;22716;51.556;5.080;2024-03-29T00:53:59;98403.88;;;9.83;98.70
36748;BME280;22716;51.556;5.080;2024-03-29T00:56:27;98410.88;;;9.83;98.91
36748;BME280;22716;51.556;5.080;2024-03-29T00:58:53;98404.94;;;9.79;98.79
36748;BME280;22716;51.556;5.080;2024-03-29T01:01:22;98412.00;;;9.77;99.12
36748;BME280;22716;51.556;5.080;2024-03-29T01:03:50;98397.09;;;9.79;98.81
36748;BME280;22716;51.556;5.080;2024-03-29T01:06:17;98400.59;;;9.78;98.98
36748;BME280;22716;51.556;5.080;2024-03-29T01:08:43;98385.47;;;9.66;98.92
36748;BME280;22716;51.556;5.080;2024-03-29T01:11:12;98409.38;;;9.77;98.64
36748;BME280;22716;51.556;5.080;2024-03-29T01:13:37;98407.72;;;9.75;98.92
36748;BME280;22716;51.556;5.080;2024-03-29T01:16:04;98406.13;;;9.72;98.48
36748;BME280;22716;51.556;5.080;2024-03-29T01:18:35;98400.03;;;9.72;98.63
36748;BME280;22716;51.556;5.080;2024-03-29T01:21:01;98395.59;;;9.74;98.79
36748;BME280;22716;51.556;5.080;2024-03-29T01:23:27;98390.44;;;9.72;98.82
36748;BME280;22716;51.556;5.080;2024-03-29T01:25:56;98383.44;;;9.73;98.41
36748;BME280;22716;51.556;5.080;2024-03-29T01:28:22;98373.81;;;9.73;98.29
36748;BME280;22716;51.556;5.080;2024-03-29T01:30:52;98356.94;;;9.62;97.97
36748;BME280;22716;51.556;5.080;2024-03-29T01:33:21;98364.38;;;9.71;98.33
36748;BME280;22716;51.556;5.080;2024-03-29T01:35:50;98360.66;;;9.75;98.48
36748;BME280;22716;51.556;5.080;2024-03-29T01:38:15;98352.97;;;9.72;97.99
36748;BME280;22716;51.556;5.080;2024-03-29T01:40:44;98359.91;;;9.73;98.14
36748;BME280;22716;51.556;5.080;2024-03-29T01:43:10;98346.06;;;9.71;98.17
36748;BME280;22716;51.556;5.080;2024-03-29T01:45:39;98348.72;;;9.69;97.81
36748;BME280;22716;51.556;5.080;2024-03-29T01:48:08;98354.75;;;9.71;97.98
36748;BME280;22716;51.556;5.080;2024-03-29T01:50:37;98365.22;;;9.71;97.71
36748;BME280;22716;51.556;5.080;2024-03-29T01:53:09;98354.94;;;9.67;97.63
36748;BME280;22716;51.556;5.080;2024-03-29T01:55:37;98363.59;;;9.69;98.15
36748;BME280;22716;51.556;5.080;2024-03-29T01:58:07;98365.34;;;9.68;97.93
36748;BME280;22716;51.556;5.080;2024-03-29T02:00:39;98373.19;;;9.68;98.02
36748;BME280;22716;51.556;5.080;2024-03-29T02:03:10;98360.25;;;9.65;98.01
36748;BME280;22716;51.556;5.080;2024-03-29T02:05:40;98362.75;;;9.68;97.96
36748;BME280;22716;51.556;5.080;2024-03-29T02:08:11;98370.50;;;9.70;98.07
36748;BME280;22716;51.556;5.080;2024-03-29T02:10:40;98379.09;;;9.72;97.97
36748;BME280;22716;51.556;5.080;2024-03-29T02:13:08;98376.50;;;9.72;97.83
36748;BME280;22716;51.556;5.080;2024-03-29T02:15:34;98400.81;;;9.74;97.83
36748;BME280;22716;51.556;5.080;2024-03-29T02:18:03;98397.38;;;9.73;98.04
36748;BME280;22716;51.556;5.080;2024-03-29T02:20:32;98385.13;;;9.74;98.14
36748;BME280;22716;51.556;5.080;2024-03-29T02:23:06;98396.47;;;9.74;97.91
36748;BME280;22716;51.556;5.080;2024-03-29T02:25:38;98407.72;;;9.75;97.51
36748;BME280;22716;51.556;5.080;2024-03-29T02:28:07;98403.34;;;9.75;98.18
36748;BME280;22716;51.556;5.080;2024-03-29T02:30:36;98401.53;;;9.77;97.83
36748;BME280;22716;51.556;5.080;2024-03-29T02:33:04;98397.13;;;9.78;97.79
36748;BME280;22716;51.556;5.080;2024-03-29T02:35:33;98409.31;;;9.79;97.75
36748;BME280;22716;51.556;5.080;2024-03-29T02:38:01;98405.78;;;9.80;97.74
36748;BME280;22716;51.556;5.080;2024-03-29T02:40:30;98413.50;;;9.83;97.64
36748;BME280;22716;51.556;5.080;2024-03-29T02:43:01;98413.50;;;9.83;97.34
36748;BME280;22716;51.556;5.080;2024-03-29T02:45:29;98422.19;;;9.83;97.20
36748;BME280;22716;51.556;5.080;2024-03-29T02:47:58;98403.03;;;9.83;98.07
36748;BME280;22716;51.556;5.080;2024-03-29T02:50:26;98403.03;;;9.83;97.82
36748;BME280;22716;51.556;5.080;2024-03-29T02:52:52;98409.94;;;9.84;98.56
36748;BME280;22716;51.556;5.080;2024-03-29T02:55:21;98407.31;;;9.84;98.38
36748;BME280;22716;51.556;5.080;2024-03-29T02:57:47;98419.56;;;9.83;98.57
36748;BME280;22716;51.556;5.080;2024-03-29T03:00:18;98404.84;;;9.81;98.59
36748;BME280;22716;51.556;5.080;2024-03-29T03:02:44;98413.41;;;9.84;98.44
36748;BME280;22716;51.556;5.080;2024-03-29T03:05:13;98422.19;;;9.83;99.02
36748;BME280;22716;51.556;5.080;2024-03-29T03:07:39;98427.34;;;9.85;99.28
36748;BME280;22716;51.556;5.080;2024-03-29T03:10:23;98429.19;;;9.83;99.38
36748;BME280;22716;51.556;5.080;2024-03-29T03:13:08;98426.75;;;9.78;99.12
36748;BME280;22716;51.556;5.080;2024-03-29T03:15:39;98425.63;;;9.84;100.00
36748;BME280;22716;51.556;5.080;2024-03-29T03:18:07;98424.00;;;9.81;99.52
36748;BME280;22716;51.556;5.080;2024-03-29T03:20:33;98423.94;;;9.83;99.94
36748;BME280;22716;51.556;5.080;2024-03-29T03:23:03;98415.25;;;9.82;100.00
36748;BME280;22716;51.556;5.080;2024-03-29T03:25:29;98403.94;;;9.82;100.00
36748;BME280;22716;51.556;5.080;2024-03-29T03:27:58;98422.09;;;9.85;100.00
36748;BME280;22716;51.556;5.080;2024-03-29T03:30:24;98421.38;;;9.81;100.00
36748;BME280;22716;51.556;5.080;2024-03-29T03:32:55;98419.56;;;9.83;100.00
36748;BME280;22716;51.556;5.080;2024-03-29T03:35:21;98432.56;;;9.85;100.00
36748;BME280;22716;51.556;5.080;2024-03-29T03:37:49;98432.56;;;9.85;100.00
36748;BME280;22716;51.556;5.080;2024-03-29T03:40:15;98435.94;;;9.87;100.00
36748;BME280;22716;51.556;5.080;2024-03-29T03:42:44;98449.97;;;9.86;100.00
36748;BME280;22716;51.556;5.080;2024-03-29T03:45:10;98444.78;;;9.84;100.00
36748;BME280;22716;51.556;5.080;2024-03-29T03:47:39;98438.00;;;9.80;100.00
36748;BME280;22716;51.556;5.080;2024-03-29T03:50:09;98446.78;;;9.79;100.00
36748;BME280;22716;51.556;5.080;2024-03-29T03:52:37;98446.81;;;9.78;100.00
36748;BME280;22716;51.556;5.080;2024-03-29T03:55:04;98446.78;;;9.79;100.00
36748;BME280;22716;51.556;5.080;2024-03-29T03:57:32;98452.31;;;9.72;100.00
36748;BME280;22716;51.556;5.080;2024-03-29T03:59:59;98461.97;;;9.71;100.00
36748;BME280;22716;51.556;5.080;2024-03-29T04:02:28;98463.84;;;9.68;100.00
36748;BME280;22716;51.556;5.080;2024-03-29T04:04:54;98474.50;;;9.63;100.00
36748;BME280;22716;51.556;5.080;2024-03-29T04:07:25;98458.31;;;9.55;100.00
36748;BME280;22716;51.556;5.080;2024-03-29T04:09:52;98477.19;;;9.62;100.00
36748;BME280;22716;51.556;5.080;2024-03-29T04:12:20;98458.94;;;9.60;100.00
36748;BME280;22716;51.556;5.080;2024-03-29T04:14:46;98485.22;;;9.57;100.00
36748;BME280;22716;51.556;5.080;2024-03-29T04:17:15;98491.53;;;9.53;100.00
36748;BME280;22716;51.556;5.080;2024-03-29T04:19:40;98470.88;;;9.47;100.00
36748;BME280;22716;51.556;5.080;2024-03-29T04:22:09;98460.03;;;9.36;100.00
36748;BME280;22716;51.556;5.080;2024-03-29T04:24:37;98473.66;;;9.42;100.00
36748;BME280;22716;51.556;5.080;2024-03-29T04:27:06;98476.63;;;9.35;100.00
36748;BME280;22716;51.556;5.080;2024-03-29T04:29:32;98466.50;;;9.27;100.00
36748;BME280;22716;51.556;5.080;2024-03-29T04:32:00;98471.06;;;9.22;100.00
36748;BME280;22716;51.556;5.080;2024-03-29T04:34:26;98464.34;;;9.17;100.00
36748;BME280;22716;51.556;5.080;2024-03-29T04:36:55;98472.50;;;9.09;100.00
36748;BME280;22716;51.556;5.080;2024-03-29T04:39:23;98482.34;;;9.02;100.00
36748;BME280;22716;51.556;5.080;2024-03-29T04:41:54;98452.75;;;8.82;100.00
36748;BME280;22716;51.556;5.080;2024-03-29T04:44:24;98468.03;;;8.91;100.00
36748;BME280;22716;51.556;5.080;2024-03-29T04:46:54;98478.41;;;8.92;100.00
36748;BME280;22716;51.556;5.080;2024-03-29T04:49:23;98477.03;;;8.84;100.00
36748;BME280;22716;51.556;5.080;2024-03-29T04:51:57;98471.81;;;8.84;100.00
36748;BME280;22716;51.556;5.080;2024-03-29T04:54:26;98460.81;;;8.76;100.00
36748;BME280;22716;51.556;5.080;2024-03-29T04:56:57;98466.28;;;8.70;100.00
36748;BME280;22716;51.556;5.080;2024-03-29T04:59:27;98462.06;;;8.67;100.00
36748;BME280;22716;51.556;5.080;2024-03-29T05:01:55;98452.72;;;8.62;100.00
36748;BME280;22716;51.556;5.080;2024-03-29T05:04:24;98459.69;;;8.61;100.00
36748;BME280;22716;51.556;5.080;2024-03-29T05:06:56;98454.78;;;8.54;100.00
36748;BME280;22716;51.556;5.080;2024-03-29T05:09:25;98451.19;;;8.56;100.00
36748;BME280;22716;51.556;5.080;2024-03-29T05:11:57;98430.06;;;8.40;100.00
36748;BME280;22716;51.556;5.080;2024-03-29T05:14:28;98460.97;;;8.51;100.00
36748;BME280;22716;51.556;5.080;2024-03-29T05:16:56;98457.53;;;8.51;100.00
36748;BME280;22716;51.556;5.080;2024-03-29T05:19:25;98449.94;;;8.44;100.00
36748;BME280;22716;51.556;5.080;2024-03-29T05:21:53;98459.72;;;8.39;100.00
36748;BME280;22716;51.556;5.080;2024-03-29T05:24:22;98457.13;;;8.38;100.00
36748;BME280;22716;51.556;5.080;2024-03-29T05:26:50;98448.34;;;8.40;100.00
36748;BME280;22716;51.556;5.080;2024-03-29T05:29:22;98448.41;;;8.39;100.00
36748;BME280;22716;51.556;5.080;2024-03-29T05:31:50;98444.41;;;8.30;100.00
36748;BME280;22716;51.556;5.080;2024-03-29T05:34:19;98452.13;;;8.33;100.00
36748;BME280;22716;51.556;5.080;2024-03-29T05:36:47;98466.69;;;8.39;100.00
36748;BME280;22716;51.556;5.080;2024-03-29T05:39:16;98457.22;;;8.36;100.00
36748;BME280;22716;51.556;5.080;2024-03-29T05:41:45;98465.88;;;8.37;100.00
36748;BME280;22716;51.556;5.080;2024-03-29T05:44:13;98461.50;;;8.37;100.00
36748;BME280;22716;51.556;5.080;2024-03-29T05:46:45;98470.16;;;8.39;100.00
36748;BME280;22716;51.556;5.080;2024-03-29T05:49:14;98460.09;;;8.29;100.00
36748;BME280;22716;51.556;5.080;2024-03-29T05:51:42;98481.59;;;8.35;100.00
36748;BME280;22716;51.556;5.080;2024-03-29T05:54:11;98479.00;;;8.35;100.00
36748;BME280;22716;51.556;5.080;2024-03-29T05:56:40;98486.81;;;8.35;100.00
36748;BME280;22716;51.556;5.080;2024-03-29T05:59:08;98475.59;;;8.33;100.00
36748;BME280;22716;51.556;5.080;2024-03-29T06:01:37;98473.78;;;8.35;100.00
36748;BME280;22716;51.556;5.080;2024-03-29T06:04:09;98482.50;;;8.34;100.00
36748;BME280;22716;51.556;5.080;2024-03-29T06:06:41;98482.50;;;8.34;100.00
36748;BME280;22716;51.556;5.080;2024-03-29T06:09:10;98473.00;;;8.33;100.00
36748;BME280;22716;51.556;5.080;2024-03-29T06:11:38;98484.81;;;8.42;100.00
36748;BME280;22716;51.556;5.080;2024-03-29T06:14:07;98486.03;;;8.33;100.00
36748;BME280;22716;51.556;5.080;2024-03-29T06:16:51;98478.31;;;8.30;100.00
36748;BME280;22716;51.556;5.080;2024-03-29T06:19:38;98484.13;;;8.37;100.00
36748;BME280;22716;51.556;5.080;2024-03-29T06:22:07;98483.34;;;8.35;100.00
36748;BME280;22716;51.556;5.080;2024-03-29T06:24:36;98500.63;;;8.37;100.00
36748;BME280;22716;51.556;5.080;2024-03-29T06:27:05;98504.28;;;8.33;100.00
36748;BME280;22716;51.556;5.080;2024-03-29T06:29:34;98507.69;;;8.35;100.00
36748;BME280;22716;51.556;5.080;2024-03-29T06:32:02;98503.38;;;8.34;100.00
36748;BME280;22716;51.556;5.080;2024-03-29T06:34:31;98505.06;;;8.35;100.00
36748;BME280;22716;51.556;5.080;2024-03-29T06:37:02;98493.78;;;8.35;100.00
36748;BME280;22716;51.556;5.080;2024-03-29T06:39:31;98495.41;;;8.37;100.00
36748;BME280;22716;51.556;5.080;2024-03-29T06:41:59;98485.81;;;8.39;100.00
36748;BME280;22716;51.556;5.080;2024-03-29T06:44:29;98497.25;;;8.35;100.00
36748;BME280;22716;51.556;5.080;2024-03-29T06:46:57;98478.88;;;8.38;100.00
36748;BME280;22716;51.556;5.080;2024-03-29T06:49:26;98460.41;;;8.43;100.00
36748;BME280;22716;51.556;5.080;2024-03-29T06:51:54;98484.97;;;8.37;100.00
36748;BME280;22716;51.556;5.080;2024-03-29T06:54:28;98492.69;;;8.40;100.00
36748;BME280;22716;51.556;5.080;2024-03-29T06:56:58;98489.97;;;8.43;100.00
36748;BME280;22716;51.556;5.080;2024-03-29T06:59:28;98497.69;;;8.47;100.00
36748;BME280;22716;51.556;5.080;2024-03-29T07:01:56;98504.59;;;8.48;100.00
36748;BME280;22716;51.556;5.080;2024-03-29T07:04:25;98490.03;;;8.42;100.00
36748;BME280;22716;51.556;5.080;2024-03-29T07:06:54;98498.69;;;8.42;100.00
36748;BME280;22716;51.556;5.080;2024-03-29T07:09:23;98515.91;;;8.48;100.00
36748;BME280;22716;51.556;5.080;2024-03-29T07:11:54;98506.16;;;8.52;100.00
36748;BME280;22716;51.556;5.080;2024-03-29T07:14:24;98518.50;;;8.48;100.00
36748;BME280;22716;51.556;5.080;2024-03-29T07:16:53;98514.94;;;8.51;100.00
36748;BME280;22716;51.556;5.080;2024-03-29T07:19:23;98510.44;;;8.54;100.00
36748;BME280;22716;51.556;5.080;2024-03-29T07:21:52;98522.56;;;8.55;100.00
36748;BME280;22716;51.556;5.080;2024-03-29T07:24:20;98518.09;;;8.59;100.00
36748;BME280;22716;51.556;5.080;2024-03-29T07:26:49;98531.88;;;8.62;100.00
36748;BME280;22716;51.556;5.080;2024-03-29T07:29:20;98528.41;;;8.62;100.00
36748;BME280;22716;51.556;5.080;2024-03-29T07:31:48;98517.09;;;8.61;100.00
36748;BME280;22716;51.556;5.080;2024-03-29T07:34:17;98520.38;;;8.66;100.00
36748;BME280;22716;51.556;5.080;2024-03-29T07:36:46;98534.38;;;8.65;100.00
36748;BME280;22716;51.556;5.080;2024-03-29T07:39:14;98530.13;;;8.63;100.00
36748;BME280;22716;51.556;5.080;2024-03-29T07:41:43;98528.09;;;8.69;100.00
36748;BME280;22716;51.556;5.080;2024-03-29T07:44:12;98542.13;;;8.67;100.00
36748;BME280;22716;51.556;5.080;2024-03-29T07:46:43;98531.69;;;8.67;100.00
36748;BME280;22716;51.556;5.080;2024-03-29T07:49:12;98542.75;;;8.73;100.00
36748;BME280;22716;51.556;5.080;2024-03-29T07:51:46;98528.78;;;8.74;100.00
36748;BME280;22716;51.556;5.080;2024-03-29T07:54:15;98513.25;;;8.71;100.00
36748;BME280;22716;51.556;5.080;2024-03-29T07:56:43;98529.59;;;8.75;100.00
36748;BME280;22716;51.556;5.080;2024-03-29T07:59:12;98531.44;;;8.73;100.00
36748;BME280;22716;51.556;5.080;2024-03-29T08:01:46;98539.09;;;8.77;100.00
36748;BME280;22716;51.556;5.080;2024-03-29T08:04:14;98522.22;;;8.64;100.00
36748;BME280;22716;51.556;5.080;2024-03-29T08:06:43;98540.13;;;8.73;100.00
36748;BME280;22716;51.556;5.080;2024-03-29T08:09:11;98546.13;;;8.75;100.00
36748;BME280;22716;51.556;5.080;2024-03-29T08:11:40;98521.84;;;8.73;100.00
36748;BME280;22716;51.556;5.080;2024-03-29T08:14:09;98522.28;;;8.84;100.00
36748;BME280;22716;51.556;5.080;2024-03-29T08:16:37;98509.03;;;8.89;100.00
36748;BME280;22716;51.556;5.080;2024-03-29T08:19:08;98514.97;;;8.92;100.00
36748;BME280;22716;51.556;5.080;2024-03-29T08:21:37;98519.00;;;9.01;100.00
36748;BME280;22716;51.556;5.080;2024-03-29T08:24:06;98522.91;;;9.11;100.00
36748;BME280;22716;51.556;5.080;2024-03-29T08:26:34;98534.88;;;9.17;100.00
36748;BME280;22716;51.556;5.080;2024-03-29T08:29:03;98539.56;;;9.30;100.00
36748;BME280;22716;51.556;5.080;2024-03-29T08:31:31;98538.09;;;9.43;100.00
36748;BME280;22716;51.556;5.080;2024-03-29T08:34:00;98535.34;;;9.46;100.00
36748;BME280;22716;51.556;5.080;2024-03-29T08:36:32;98523.41;;;9.61;100.00
36748;BME280;22716;51.556;5.080;2024-03-29T08:39:00;98527.50;;;9.67;100.00
36748;BME280;22716;51.556;5.080;2024-03-29T08:41:29;98531.88;;;9.66;100.00
36748;BME280;22716;51.556;5.080;2024-03-29T08:43:57;98540.84;;;9.81;100.00
36748;BME280;22716;51.556;5.080;2024-03-29T08:46:26;98554.31;;;9.92;100.00
36748;BME280;22716;51.556;5.080;2024-03-29T08:48:55;98544.69;;;9.92;100.00
36748;BME280;22716;51.556;5.080;2024-03-29T08:51:24;98549.09;;;9.92;100.00
36748;BME280;22716;51.556;5.080;2024-03-29T08:53:55;98548.50;;;10.04;100.00
36748;BME280;22716;51.556;5.080;2024-03-29T08:56:24;98566.50;;;10.11;100.00
36748;BME280;22716;51.556;5.080;2024-03-29T08:58:52;98562.03;;;10.15;100.00
36748;BME280;22716;51.556;5.080;2024-03-29T09:01:21;98556.78;;;10.15;100.00
36748;BME280;22716;51.556;5.080;2024-03-29T09:03:49;98558.16;;;10.24;100.00
36748;BME280;22716;51.556;5.080;2024-03-29T09:06:19;98557.16;;;10.26;100.00
36748;BME280;22716;51.556;5.080;2024-03-29T09:08:47;98553.19;;;10.36;100.00
36748;BME280;22716;51.556;5.080;2024-03-29T09:11:18;98560.75;;;10.42;100.00
36748;BME280;22716;51.556;5.080;2024-03-29T09:13:47;98565.56;;;10.51;100.00
36748;BME280;22716;51.556;5.080;2024-03-29T09:16:16;98564.88;;;10.48;100.00
36748;BME280;22716;51.556;5.080;2024-03-29T09:18:46;98567.16;;;10.55;100.00
36748;BME280;22716;51.556;5.080;2024-03-29T09:21:14;98568.72;;;10.59;100.00
36748;BME280;22716;51.556;5.080;2024-03-29T09:23:45;98572.16;;;10.60;100.00
36748;BME280;22716;51.556;5.080;2024-03-29T09:26:14;98570.09;;;10.66;100.00
36748;BME280;22716;51.556;5.080;2024-03-29T09:28:46;98573.22;;;10.75;100.00
36748;BME280;22716;51.556;5.080;2024-03-29T09:31:15;98572.88;;;10.82;100.00
36748;BME280;22716;51.556;5.080;2024-03-29T09:33:43;98580.50;;;10.87;100.00
36748;BME280;22716;51.556;5.080;2024-03-29T09:36:12;98582.13;;;10.89;100.00
36748;BME280;22716;51.556;5.080;2024-03-29T09:38:41;98592.97;;;11.00;100.00
36748;BME280;22716;51.556;5.080;2024-03-29T09:41:10;98594.44;;;11.06;100.00
36748;BME280;22716;51.556;5.080;2024-03-29T09:43:42;98595.28;;;11.06;100.00
36748;BME280;22716;51.556;5.080;2024-03-29T09:46:15;98605.31;;;11.15;100.00
36748;BME280;22716;51.556;5.080;2024-03-29T09:48:45;98613.53;;;11.27;100.00
36748;BME280;22716;51.556;5.080;2024-03-29T09:51:14;98615.75;;;11.34;100.00
36748;BME280;22716;51.556;5.080;2024-03-29T09:53:43;98603.97;;;11.43;100.00
36748;BME280;22716;51.556;5.080;2024-03-29T09:56:11;98602.81;;;11.48;100.00
36748;BME280;22716;51.556;5.080;2024-03-29T09:58:40;98604.06;;;11.58;100.00
36748;BME280;22716;51.556;5.080;2024-03-29T10:01:09;98594.50;;;11.57;100.00
36748;BME280;22716;51.556;5.080;2024-03-29T10:03:43;98588.50;;;11.55;100.00
36748;BME280;22716;51.556;5.080;2024-03-29T10:06:13;98594.50;;;11.57;100.00
36748;BME280;22716;51.556;5.080;2024-03-29T10:08:43;98586.34;;;11.63;100.00
36748;BME280;22716;51.556;5.080;2024-03-29T10:11:13;98590.38;;;11.70;100.00
36748;BME280;22716;51.556;5.080;2024-03-29T10:13:44;98596.94;;;11.79;100.00
36748;BME280;22716;51.556;5.080;2024-03-29T10:16:13;98596.25;;;11.75;100.00
36748;BME280;22716;51.556;5.080;2024-03-29T10:18:47;98598.25;;;11.88;100.00
36748;BME280;22716;51.556;5.080;2024-03-29T10:21:16;98597.84;;;11.95;100.00
36748;BME280;22716;51.556;5.080;2024-03-29T10:23:46;98612.91;;;12.09;100.00
36748;BME280;22716;51.556;5.080;2024-03-29T10:26:15;98600.84;;;12.05;100.00
36748;BME280;22716;51.556;5.080;2024-03-29T10:28:46;98622.28;;;12.13;100.00
36748;BME280;22716;51.556;5.080;2024-03-29T10:31:15;98620.31;;;12.18;100.00
36748;BME280;22716;51.556;5.080;2024-03-29T10:33:47;98614.63;;;12.25;100.00
36748;BME280;22716;51.556;5.080;2024-03-29T10:36:18;98619.13;;;12.23;100.00
36748;BME280;22716;51.556;5.080;2024-03-29T10:38:47;98611.31;;;12.22;100.00
36748;BME280;22716;51.556;5.080;2024-03-29T10:41:16;98618.81;;;12.29;100.00
36748;BME280;22716;51.556;5.080;2024-03-29T10:43:48;98615.78;;;12.37;100.00
36748;BME280;22716;51.556;5.080;2024-03-29T10:46:19;98622.72;;;12.38;100.00
36748;BME280;22716;51.556;5.080;2024-03-29T10:48:51;98637.63;;;12.38;100.00
36748;BME280;22716;51.556;5.080;2024-03-29T10:51:20;98644.72;;;12.53;100.00
36748;BME280;22716;51.556;5.080;2024-03-29T10:53:50;98609.88;;;12.49;100.00
36748;BME280;22716;51.556;5.080;2024-03-29T10:56:21;98644.06;;;12.80;100.00
36748;BME280;22716;51.556;5.080;2024-03-29T10:58:54;98644.00;;;12.82;100.00
36748;BME280;22716;51.556;5.080;2024-03-29T11:01:26;98638.31;;;12.89;100.00
36748;BME280;22716;51.556;5.080;2024-03-29T11:04:03;98592.81;;;12.73;100.00
36748;BME280;22716;51.556;5.080;2024-03-29T11:06:36;98627.63;;;12.92;100.00
36748;BME280;22716;51.556;5.080;2024-03-29T11:09:07;98605.16;;;12.87;100.00
36748;BME280;22716;51.556;5.080;2024-03-29T11:11:44;98608.91;;;12.99;100.00
36748;BME280;22716;51.556;5.080;2024-03-29T11:14:20;98613.81;;;13.05;100.00
36748;BME280;22716;51.556;5.080;2024-03-29T11:16:52;98613.53;;;13.11;100.00
36748;BME280;22716;51.556;5.080;2024-03-29T11:19:27;98609.69;;;13.16;100.00
36748;BME280;22716;51.556;5.080;2024-03-29T11:21:56;98614.34;;;13.27;100.00
36748;BME280;22716;51.556;5.080;2024-03-29T11:24:26;98619.44;;;13.30;100.00
36748;BME280;22716;51.556;5.080;2024-03-29T11:26:55;98622.91;;;13.30;100.00
36748;BME280;22716;51.556;5.080;2024-03-29T11:29:24;98617.25;;;13.38;100.00
36748;BME280;22716;51.556;5.080;2024-03-29T11:31:58;98631.13;;;13.56;100.00
36748;BME280;22716;51.556;5.080;2024-03-29T11:34:33;98635.50;;;13.71;100.00
36748;BME280;22716;51.556;5.080;2024-03-29T11:37:09;98645.91;;;13.88;100.00
36748;BME280;22716;51.556;5.080;2024-03-29T11:39:39;98645.13;;;13.86;100.00
36748;BME280;22716;51.556;5.080;2024-03-29T11:42:08;98638.66;;;13.91;100.00
36748;BME280;22716;51.556;5.080;2024-03-29T11:44:37;98641.59;;;14.01;100.00
36748;BME280;22716;51.556;5.080;2024-03-29T11:47:06;98641.25;;;14.07;100.00
36748;BME280;22716;51.556;5.080;2024-03-29T11:49:40;98612.81;;;13.98;100.00
36748;BME280;22716;51.556;5.080;2024-03-29T11:52:09;98651.53;;;14.26;100.00
36748;BME280;22716;51.556;5.080;2024-03-29T11:54:39;98661.28;;;14.24;100.00
36748;BME280;22716;51.556;5.080;2024-03-29T11:57:07;98654.25;;;14.24;100.00
36748;BME280;22716;51.556;5.080;2024-03-29T11:59:36;98659.06;;;14.32;100.00
36748;BME280;22716;51.556;5.080;2024-03-29T12:02:08;98650.06;;;14.36;100.00
36748;BME280;22716;51.556;5.080;2024-03-29T12:04:44;98665.63;;;14.54;100.00
36748;BME280;22716;51.556;5.080;2024-03-29T12:07:12;98662.69;;;14.59;100.00
36748;BME280;22716;51.556;5.080;2024-03-29T12:09:41;98653.97;;;14.58;100.00
36748;BME280;22716;51.556;5.080;2024-03-29T12:12:09;98653.59;;;14.65;100.00
36748;BME280;22716;51.556;5.080;2024-03-29T12:14:43;98656.22;;;14.65;100.00
36748;BME280;22716;51.556;5.080;2024-03-29T12:17:11;98665.06;;;14.64;100.00
36748;BME280;22716;51.556;5.080;2024-03-29T12:19:40;98663.66;;;14.58;100.00
36748;BME280;22716;51.556;5.080;2024-03-29T12:22:13;98658.44;;;14.71;100.00
36748;BME280;22716;51.556;5.080;2024-03-29T12:24:42;98656.28;;;14.77;100.00
36748;BME280;22716;51.556;5.080;2024-03-29T12:27:11;98657.81;;;14.81;100.00
36748;BME280;22716;51.556;5.080;2024-03-29T12:29:39;98649.44;;;14.75;100.00
36748;BME280;22716;51.556;5.080;2024-03-29T12:32:08;98665.72;;;14.67;100.00
36748;BME280;22716;51.556;5.080;2024-03-29T12:34:36;98665.31;;;14.59;100.00
36748;BME280;22716;51.556;5.080;2024-03-29T12:37:05;98675.59;;;14.64;100.00
36748;BME280;22716;51.556;5.080;2024-03-29T12:39:36;98673.44;;;14.70;100.00
36748;BME280;22716;51.556;5.080;2024-03-29T12:42:07;98676.25;;;14.81;100.00
36748;BME280;22716;51.556;5.080;2024-03-29T12:44:36;98675.88;;;15.01;100.00
36748;BME280;22716;51.556;5.080;2024-03-29T12:47:05;98674.94;;;15.02;99.76
36748;BME280;22716;51.556;5.080;2024-03-29T12:49:33;98672.00;;;15.07;98.99
36748;BME280;22716;51.556;5.080;2024-03-29T12:52:02;98671.91;;;15.08;99.04
36748;BME280;22716;51.556;5.080;2024-03-29T12:54:36;98670.41;;;15.04;99.89
36748;BME280;22716;51.556;5.080;2024-03-29T12:57:04;98677.75;;;15.13;99.42
36748;BME280;22716;51.556;5.080;2024-03-29T12:59:34;98683.91;;;15.27;99.21
36748;BME280;22716;51.556;5.080;2024-03-29T13:02:02;98663.75;;;15.40;98.15
36748;BME280;22716;51.556;5.080;2024-03-29T13:04:32;98674.69;;;15.34;97.41
36748;BME280;22716;51.556;5.080;2024-03-29T13:07:00;98662.34;;;15.34;97.66
36748;BME280;22716;51.556;5.080;2024-03-29T13:09:29;98677.88;;;15.39;96.97
36748;BME280;22716;51.556;5.080;2024-03-29T13:12:00;98693.22;;;15.46;96.86